Terminal Aerodrome Forecast
Issued by NWS Brownsville, TX

Home | Current Version | Previous Version | Text Only | Print | Product List | Glossary On
Versions: 1 2 3 4 5 6 7 8 9 10 11 12 13 14 15
987
FTUS44 KBRO 231125
TAFHRL
TAF
KHRL 231125Z 2312/2412 14009KT P6SM SKC
     FM231500 16016G22KT P6SM SKC
     FM231800 17025G31KT P6SM SCT250
     FM240200 15015G23KT P6SM FEW035 SCT250
     FM240300 15015KT P6SM FEW035 SCT250=

USA.gov is the U.S. government's official web portal to all federal, state and local government web resources and services.